sensor_id;sensor_type;location;lat;lon;timestamp;pressure;altitude;pressure_sealevel;temperature;humidity
59650;BME280;46162;57.568;25.814;2022-10-16T00:01:47;100850.59;;;8.79;100.00
59650;BME280;46162;57.568;25.814;2022-10-16T00:04:16;100856.56;;;8.83;100.00
59650;BME280;46162;57.568;25.814;2022-10-16T00:06:44;100864.94;;;8.90;100.00
59650;BME280;46162;57.568;25.814;2022-10-16T00:09:14;100862.94;;;8.92;100.00
59650;BME280;46162;57.568;25.814;2022-10-16T00:11:43;100862.50;;;8.87;100.00
59650;BME280;46162;57.568;25.814;2022-10-16T00:14:14;100862.50;;;8.87;100.00
59650;BME280;46162;57.568;25.814;2022-10-16T00:16:43;100858.69;;;8.89;100.00
59650;BME280;46162;57.568;25.814;2022-10-16T00:19:11;100854.16;;;8.90;100.00
59650;BME280;46162;57.568;25.814;2022-10-16T00:21:40;100853.72;;;8.85;100.00
59650;BME280;46162;57.568;25.814;2022-10-16T00:24:09;100851.34;;;8.91;100.00
59650;BME280;46162;57.568;25.814;2022-10-16T00:26:40;100860.13;;;8.93;100.00
59650;BME280;46162;57.568;25.814;2022-10-16T00:29:09;100855.59;;;8.94;100.00
59650;BME280;46162;57.568;25.814;2022-10-16T00:31:38;100857.28;;;8.95;100.00
59650;BME280;46162;57.568;25.814;2022-10-16T00:34:06;100850.94;;;8.96;100.00
59650;BME280;46162;57.568;25.814;2022-10-16T00:36:35;100847.22;;;8.97;100.00
59650;BME280;46162;57.568;25.814;2022-10-16T00:39:04;100843.00;;;9.04;100.00
59650;BME280;46162;57.568;25.814;2022-10-16T00:41:33;100839.50;;;9.13;100.00
59650;BME280;46162;57.568;25.814;2022-10-16T00:44:41;100833.00;;;9.25;100.00
59650;BME280;46162;57.568;25.814;2022-10-16T00:46:53;100840.47;;;9.12;100.00
59650;BME280;46162;57.568;25.814;2022-10-16T00:49:22;100843.16;;;9.12;100.00
59650;BME280;46162;57.568;25.814;2022-10-16T00:51:53;100847.56;;;9.13;100.00
59650;BME280;46162;57.568;25.814;2022-10-16T00:54:25;100852.53;;;9.08;100.00
59650;BME280;46162;57.568;25.814;2022-10-16T00:56:55;100839.88;;;8.99;100.00
59650;BME280;46162;57.568;25.814;2022-10-16T00:59:27;100844.97;;;9.02;100.00
59650;BME280;46162;57.568;25.814;2022-10-16T01:01:58;100846.25;;;8.98;100.00
59650;BME280;46162;57.568;25.814;2022-10-16T01:04:31;100845.69;;;9.04;100.00
59650;BME280;46162;57.568;25.814;2022-10-16T01:07:06;100841.59;;;9.10;100.00
59650;BME280;46162;57.568;25.814;2022-10-16T01:09:49;100845.41;;;9.07;100.00
59650;BME280;46162;57.568;25.814;2022-10-16T01:12:27;100841.47;;;9.11;100.00
59650;BME280;46162;57.568;25.814;2022-10-16T01:15:11;100845.59;;;9.15;100.00
59650;BME280;46162;57.568;25.814;2022-10-16T01:17:44;100845.44;;;9.17;100.00
59650;BME280;46162;57.568;25.814;2022-10-16T01:20:20;100828.44;;;9.16;100.00
59650;BME280;46162;57.568;25.814;2022-10-16T01:23:03;100839.91;;;9.18;100.00
59650;BME280;46162;57.568;25.814;2022-10-16T01:26:00;100839.78;;;9.20;100.00
59650;BME280;46162;57.568;25.814;2022-10-16T01:28:41;100837.22;;;9.18;100.00
59650;BME280;46162;57.568;25.814;2022-10-16T01:31:15;100848.44;;;9.23;100.00
59650;BME280;46162;57.568;25.814;2022-10-16T01:33:47;100844.06;;;9.22;100.00
59650;BME280;46162;57.568;25.814;2022-10-16T01:36:28;100841.50;;;9.21;100.00
59650;BME280;46162;57.568;25.814;2022-10-16T01:39:00;100847.88;;;9.20;100.00
59650;BME280;46162;57.568;25.814;2022-10-16T01:41:32;100837.94;;;9.11;100.00
59650;BME280;46162;57.568;25.814;2022-10-16T01:44:06;100841.34;;;9.13;100.00
59650;BME280;46162;57.568;25.814;2022-10-16T01:46:38;100842.91;;;9.15;100.00
59650;BME280;46162;57.568;25.814;2022-10-16T01:49:09;100841.19;;;9.14;100.00
59650;BME280;46162;57.568;25.814;2022-10-16T01:51:39;100836.22;;;9.19;100.00
59650;BME280;46162;57.568;25.814;2022-10-16T01:54:08;100829.03;;;9.20;100.00
59650;BME280;46162;57.568;25.814;2022-10-16T01:56:39;100838.38;;;9.25;100.00
59650;BME280;46162;57.568;25.814;2022-10-16T01:59:13;100838.09;;;9.29;100.00
59650;BME280;46162;57.568;25.814;2022-10-16T02:01:47;100833.53;;;9.29;100.00
59650;BME280;46162;57.568;25.814;2022-10-16T02:04:21;100829.88;;;9.30;100.00
59650;BME280;46162;57.568;25.814;2022-10-16T02:06:52;100833.84;;;9.26;100.00
59650;BME280;46162;57.568;25.814;2022-10-16T02:09:21;100821.38;;;9.25;100.00
59650;BME280;46162;57.568;25.814;2022-10-16T02:11:53;100821.63;;;9.22;100.00
59650;BME280;46162;57.568;25.814;2022-10-16T02:14:25;100821.78;;;9.20;100.00
59650;BME280;46162;57.568;25.814;2022-10-16T02:16:54;100821.19;;;9.17;100.00
59650;BME280;46162;57.568;25.814;2022-10-16T02:19:23;100823.34;;;9.23;100.00
59650;BME280;46162;57.568;25.814;2022-10-16T02:21:54;100825.88;;;9.24;100.00
59650;BME280;46162;57.568;25.814;2022-10-16T02:24:31;100826.16;;;9.21;100.00
59650;BME280;46162;57.568;25.814;2022-10-16T02:27:05;100826.16;;;9.21;100.00
59650;BME280;46162;57.568;25.814;2022-10-16T02:29:39;100817.78;;;9.24;100.00
59650;BME280;46162;57.568;25.814;2022-10-16T02:32:13;100814.25;;;9.24;100.00
59650;BME280;46162;57.568;25.814;2022-10-16T02:34:44;100806.34;;;9.32;100.00
59650;BME280;46162;57.568;25.814;2022-10-16T02:37:14;100810.59;;;9.25;100.00
59650;BME280;46162;57.568;25.814;2022-10-16T02:39:43;100815.09;;;9.15;100.00
59650;BME280;46162;57.568;25.814;2022-10-16T02:42:13;100809.84;;;9.13;100.00
59650;BME280;46162;57.568;25.814;2022-10-16T02:44:43;100806.00;;;9.06;100.00
59650;BME280;46162;57.568;25.814;2022-10-16T02:47:12;100804.16;;;9.07;100.00
59650;BME280;46162;57.568;25.814;2022-10-16T02:49:41;100800.78;;;9.14;100.00
59650;BME280;46162;57.568;25.814;2022-10-16T02:52:10;100799.50;;;9.09;100.00
59650;BME280;46162;57.568;25.814;2022-10-16T02:54:38;100792.56;;;9.06;100.00
59650;BME280;46162;57.568;25.814;2022-10-16T02:57:07;100787.72;;;9.19;100.00
59650;BME280;46162;57.568;25.814;2022-10-16T02:59:36;100799.38;;;9.10;100.00
59650;BME280;46162;57.568;25.814;2022-10-16T03:02:06;100787.44;;;9.03;100.00
59650;BME280;46162;57.568;25.814;2022-10-16T03:04:35;100797.66;;;9.09;100.00
59650;BME280;46162;57.568;25.814;2022-10-16T03:07:04;100793.09;;;9.00;100.00
59650;BME280;46162;57.568;25.814;2022-10-16T03:09:32;100794.41;;;9.06;100.00
59650;BME280;46162;57.568;25.814;2022-10-16T03:12:01;100791.97;;;9.12;100.00
59650;BME280;46162;57.568;25.814;2022-10-16T03:14:30;100785.63;;;9.13;100.00
59650;BME280;46162;57.568;25.814;2022-10-16T03:16:58;100784.47;;;9.06;100.00
59650;BME280;46162;57.568;25.814;2022-10-16T03:19:28;100787.31;;;9.14;100.00
59650;BME280;46162;57.568;25.814;2022-10-16T03:21:57;100783.22;;;9.10;100.00
59650;BME280;46162;57.568;25.814;2022-10-16T03:24:26;100793.53;;;9.15;100.00
59650;BME280;46162;57.568;25.814;2022-10-16T03:26:54;100783.91;;;9.12;100.00
59650;BME280;46162;57.568;25.814;2022-10-16T03:29:23;100792.44;;;9.17;100.00
59650;BME280;46162;57.568;25.814;2022-10-16T03:31:52;100791.56;;;9.17;100.00
59650;BME280;46162;57.568;25.814;2022-10-16T03:34:21;100789.56;;;9.09;100.00
59650;BME280;46162;57.568;25.814;2022-10-16T03:36:52;100792.69;;;9.14;100.00
59650;BME280;46162;57.568;25.814;2022-10-16T03:39:20;100791.00;;;9.13;100.00
59650;BME280;46162;57.568;25.814;2022-10-16T03:41:49;100802.75;;;9.12;100.00
59650;BME280;46162;57.568;25.814;2022-10-16T03:44:18;100807.44;;;9.10;100.00
59650;BME280;46162;57.568;25.814;2022-10-16T03:46:46;100799.22;;;9.12;100.00
59650;BME280;46162;57.568;25.814;2022-10-16T03:49:15;100806.88;;;9.16;100.00
59650;BME280;46162;57.568;25.814;2022-10-16T03:51:44;100798.69;;;9.28;100.00
59650;BME280;46162;57.568;25.814;2022-10-16T03:54:14;100802.63;;;9.23;100.00
59650;BME280;46162;57.568;25.814;2022-10-16T03:56:43;100806.06;;;9.25;100.00
59650;BME280;46162;57.568;25.814;2022-10-16T03:59:11;100808.75;;;9.25;100.00
59650;BME280;46162;57.568;25.814;2022-10-16T04:01:40;100811.72;;;9.22;100.00
59650;BME280;46162;57.568;25.814;2022-10-16T04:04:09;100808.44;;;9.29;100.00
59650;BME280;46162;57.568;25.814;2022-10-16T04:06:37;100804.31;;;9.24;100.00
59650;BME280;46162;57.568;25.814;2022-10-16T04:09:06;100797.97;;;9.45;100.00
59650;BME280;46162;57.568;25.814;2022-10-16T04:11:36;100807.75;;;9.46;100.00
59650;BME280;46162;57.568;25.814;2022-10-16T04:14:06;100796.13;;;9.36;100.00
59650;BME280;46162;57.568;25.814;2022-10-16T04:16:34;100797.38;;;9.32;100.00
59650;BME280;46162;57.568;25.814;2022-10-16T04:19:03;100805.19;;;9.44;100.00
59650;BME280;46162;57.568;25.814;2022-10-16T04:21:32;100800.38;;;9.38;100.00
59650;BME280;46162;57.568;25.814;2022-10-16T04:24:00;100804.34;;;9.44;100.00
59650;BME280;46162;57.568;25.814;2022-10-16T04:26:29;100799.97;;;9.43;100.00
59650;BME280;46162;57.568;25.814;2022-10-16T04:28:59;100797.81;;;9.37;100.00
59650;BME280;46162;57.568;25.814;2022-10-16T04:31:28;100795.28;;;9.35;100.00
59650;BME280;46162;57.568;25.814;2022-10-16T04:33:57;100791.88;;;9.33;100.00
59650;BME280;46162;57.568;25.814;2022-10-16T04:36:25;100788.16;;;9.34;100.00
59650;BME280;46162;57.568;25.814;2022-10-16T04:38:55;100794.44;;;9.35;100.00
59650;BME280;46162;57.568;25.814;2022-10-16T04:41:24;100799.13;;;9.42;100.00
59650;BME280;46162;57.568;25.814;2022-10-16T04:43:52;100796.97;;;9.46;100.00
59650;BME280;46162;57.568;25.814;2022-10-16T04:46:22;100794.41;;;9.44;100.00
59650;BME280;46162;57.568;25.814;2022-10-16T04:48:51;100792.16;;;9.50;100.00
59650;BME280;46162;57.568;25.814;2022-10-16T04:51:20;100793.31;;;9.47;100.00
59650;BME280;46162;57.568;25.814;2022-10-16T04:53:49;100792.41;;;9.56;100.00
59650;BME280;46162;57.568;25.814;2022-10-16T04:56:18;100798.09;;;9.53;100.00
59650;BME280;46162;57.568;25.814;2022-10-16T04:58:48;100797.56;;;9.50;100.00
59650;BME280;46162;57.568;25.814;2022-10-16T05:01:16;100795.00;;;9.48;100.00
59650;BME280;46162;57.568;25.814;2022-10-16T05:03:46;100798.09;;;9.53;100.00
59650;BME280;46162;57.568;25.814;2022-10-16T05:06:15;100799.38;;;9.49;100.00
59650;BME280;46162;57.568;25.814;2022-10-16T05:08:44;100798.53;;;9.48;100.00
59650;BME280;46162;57.568;25.814;2022-10-16T05:11:13;100797.97;;;9.45;100.00
59650;BME280;46162;57.568;25.814;2022-10-16T05:13:41;100794.56;;;9.53;100.00
59650;BME280;46162;57.568;25.814;2022-10-16T05:16:10;100802.50;;;9.54;100.00
59650;BME280;46162;57.568;25.814;2022-10-16T05:18:39;100809.19;;;9.60;100.00
59650;BME280;46162;57.568;25.814;2022-10-16T05:21:09;100814.41;;;9.61;100.00
59650;BME280;46162;57.568;25.814;2022-10-16T05:23:38;100807.19;;;9.62;100.00
59650;BME280;46162;57.568;25.814;2022-10-16T05:26:08;100813.28;;;9.64;100.00
59650;BME280;46162;57.568;25.814;2022-10-16T05:28:37;100812.72;;;9.70;100.00
59650;BME280;46162;57.568;25.814;2022-10-16T05:31:06;100809.00;;;9.61;100.00
59650;BME280;46162;57.568;25.814;2022-10-16T05:33:35;100820.94;;;9.68;100.00
59650;BME280;46162;57.568;25.814;2022-10-16T05:36:05;100820.81;;;9.70;100.00
59650;BME280;46162;57.568;25.814;2022-10-16T05:38:36;100818.66;;;9.64;100.00
59650;BME280;46162;57.568;25.814;2022-10-16T05:41:05;100809.59;;;9.75;100.00
59650;BME280;46162;57.568;25.814;2022-10-16T05:43:34;100805.75;;;9.77;100.00
59650;BME280;46162;57.568;25.814;2022-10-16T05:46:04;100808.47;;;9.77;100.00
59650;BME280;46162;57.568;25.814;2022-10-16T05:48:33;100809.31;;;9.78;100.00
59650;BME280;46162;57.568;25.814;2022-10-16T05:51:03;100808.72;;;9.84;100.00
59650;BME280;46162;57.568;25.814;2022-10-16T05:53:36;100807.13;;;9.91;100.00
59650;BME280;46162;57.568;25.814;2022-10-16T05:56:07;100805.34;;;9.82;100.00
59650;BME280;46162;57.568;25.814;2022-10-16T05:58:38;100812.28;;;9.84;100.00
59650;BME280;46162;57.568;25.814;2022-10-16T06:01:10;100814.81;;;9.86;100.00
59650;BME280;46162;57.568;25.814;2022-10-16T06:03:39;100815.81;;;9.85;100.00
59650;BME280;46162;57.568;25.814;2022-10-16T06:06:09;100819.91;;;9.89;100.00
59650;BME280;46162;57.568;25.814;2022-10-16T06:08:41;100824.47;;;9.88;100.00
59650;BME280;46162;57.568;25.814;2022-10-16T06:11:12;100821.03;;;9.96;100.00
59650;BME280;46162;57.568;25.814;2022-10-16T06:13:40;100816.66;;;9.95;100.00
59650;BME280;46162;57.568;25.814;2022-10-16T06:16:10;100818.75;;;10.01;100.00
59650;BME280;46162;57.568;25.814;2022-10-16T06:18:39;100817.78;;;10.02;100.00
59650;BME280;46162;57.568;25.814;2022-10-16T06:21:08;100817.06;;;10.00;100.00
59650;BME280;46162;57.568;25.814;2022-10-16T06:23:37;100820.78;;;9.99;100.00
59650;BME280;46162;57.568;25.814;2022-10-16T06:26:09;100823.19;;;10.02;100.00
59650;BME280;46162;57.568;25.814;2022-10-16T06:28:39;100827.84;;;10.00;100.00
59650;BME280;46162;57.568;25.814;2022-10-16T06:31:09;100836.66;;;10.02;100.00
59650;BME280;46162;57.568;25.814;2022-10-16T06:33:39;100841.22;;;10.02;100.00
59650;BME280;46162;57.568;25.814;2022-10-16T06:36:09;100833.13;;;10.02;100.00
59650;BME280;46162;57.568;25.814;2022-10-16T06:38:39;100847.16;;;10.05;100.00
59650;BME280;46162;57.568;25.814;2022-10-16T06:41:10;100854.94;;;10.18;100.00
59650;BME280;46162;57.568;25.814;2022-10-16T06:43:39;100853.97;;;10.09;100.00
59650;BME280;46162;57.568;25.814;2022-10-16T06:46:10;100854.69;;;10.11;100.00
59650;BME280;46162;57.568;25.814;2022-10-16T06:48:39;100864.16;;;10.16;100.00
59650;BME280;46162;57.568;25.814;2022-10-16T06:51:10;100858.78;;;10.06;100.00
59650;BME280;46162;57.568;25.814;2022-10-16T06:53:41;100865.50;;;10.02;100.00
59650;BME280;46162;57.568;25.814;2022-10-16T06:56:32;100858.25;;;10.02;100.00
59650;BME280;46162;57.568;25.814;2022-10-16T06:59:01;100858.25;;;10.02;100.00
59650;BME280;46162;57.568;25.814;2022-10-16T07:01:30;100861.78;;;10.12;100.00
59650;BME280;46162;57.568;25.814;2022-10-16T07:03:59;100861.66;;;10.04;100.00
59650;BME280;46162;57.568;25.814;2022-10-16T07:06:31;100863.34;;;10.05;100.00
59650;BME280;46162;57.568;25.814;2022-10-16T07:09:00;100865.06;;;10.06;100.00
59650;BME280;46162;57.568;25.814;2022-10-16T07:11:31;100878.69;;;10.05;100.00
59650;BME280;46162;57.568;25.814;2022-10-16T07:13:59;100870.72;;;10.03;100.00
59650;BME280;46162;57.568;25.814;2022-10-16T07:16:30;100875.13;;;10.04;100.00
59650;BME280;46162;57.568;25.814;2022-10-16T07:19:01;100872.16;;;10.07;100.00
59650;BME280;46162;57.568;25.814;2022-10-16T07:21:31;100872.44;;;10.14;100.00
59650;BME280;46162;57.568;25.814;2022-10-16T07:24:05;100877.66;;;10.16;100.00
59650;BME280;46162;57.568;25.814;2022-10-16T07:26:36;100874.25;;;10.13;100.00
59650;BME280;46162;57.568;25.814;2022-10-16T07:29:07;100874.25;;;10.13;100.00
59650;BME280;46162;57.568;25.814;2022-10-16T07:31:41;100878.50;;;10.16;100.00
59650;BME280;46162;57.568;25.814;2022-10-16T07:34:10;100870.69;;;10.23;100.00
59650;BME280;46162;57.568;25.814;2022-10-16T07:36:40;100870.56;;;10.34;100.00
59650;BME280;46162;57.568;25.814;2022-10-16T07:39:13;100867.69;;;10.45;100.00
59650;BME280;46162;57.568;25.814;2022-10-16T07:41:43;100870.66;;;10.52;100.00
59650;BME280;46162;57.568;25.814;2022-10-16T07:44:12;100862.97;;;10.57;100.00
59650;BME280;46162;57.568;25.814;2022-10-16T07:46:41;100861.50;;;10.63;100.00
59650;BME280;46162;57.568;25.814;2022-10-16T07:49:10;100863.22;;;10.64;100.00
59650;BME280;46162;57.568;25.814;2022-10-16T07:51:38;100866.47;;;10.67;100.00
59650;BME280;46162;57.568;25.814;2022-10-16T07:54:08;100872.44;;;10.71;100.00
59650;BME280;46162;57.568;25.814;2022-10-16T07:56:37;100868.81;;;10.80;100.00
59650;BME280;46162;57.568;25.814;2022-10-16T07:59:11;100878.34;;;10.84;100.00
59650;BME280;46162;57.568;25.814;2022-10-16T08:01:40;100875.78;;;10.83;100.00
59650;BME280;46162;57.568;25.814;2022-10-16T08:04:10;100880.91;;;10.86;100.00
59650;BME280;46162;57.568;25.814;2022-10-16T08:06:40;100883.13;;;10.90;100.00
59650;BME280;46162;57.568;25.814;2022-10-16T08:09:09;100878.16;;;10.95;100.00
59650;BME280;46162;57.568;25.814;2022-10-16T08:11:38;100882.69;;;10.95;100.00
59650;BME280;46162;57.568;25.814;2022-10-16T08:14:06;100875.00;;;11.00;100.00
59650;BME280;46162;57.568;25.814;2022-10-16T08:16:36;100874.66;;;11.13;100.00
59650;BME280;46162;57.568;25.814;2022-10-16T08:19:05;100878.03;;;11.15;100.00
59650;BME280;46162;57.568;25.814;2022-10-16T08:21:34;100880.66;;;11.07;100.00
59650;BME280;46162;57.568;25.814;2022-10-16T08:24:02;100878.34;;;11.12;100.00
59650;BME280;46162;57.568;25.814;2022-10-16T08:26:31;100872.03;;;11.21;100.00
59650;BME280;46162;57.568;25.814;2022-10-16T08:29:00;100868.19;;;11.24;100.00
59650;BME280;46162;57.568;25.814;2022-10-16T08:31:29;100881.13;;;11.20;100.00
59650;BME280;46162;57.568;25.814;2022-10-16T08:33:59;100874.34;;;11.16;100.00
59650;BME280;46162;57.568;25.814;2022-10-16T08:36:28;100888.84;;;11.15;100.00
59650;BME280;46162;57.568;25.814;2022-10-16T08:38:57;100879.44;;;11.19;100.00
59650;BME280;46162;57.568;25.814;2022-10-16T08:42:11;100876.44;;;11.22;100.00
59650;BME280;46162;57.568;25.814;2022-10-16T08:45:20;100885.69;;;11.19;100.00
59650;BME280;46162;57.568;25.814;2022-10-16T08:48:00;100881.69;;;11.24;100.00
59650;BME280;46162;57.568;25.814;2022-10-16T08:50:37;100882.72;;;11.23;100.00
59650;BME280;46162;57.568;25.814;2022-10-16T08:53:09;100886.25;;;11.23;100.00
59650;BME280;46162;57.568;25.814;2022-10-16T08:55:42;100885.63;;;11.29;100.00
59650;BME280;46162;57.568;25.814;2022-10-16T08:58:14;100888.66;;;11.26;100.00
59650;BME280;46162;57.568;25.814;2022-10-16T09:00:46;100883.56;;;11.23;100.00
59650;BME280;46162;57.568;25.814;2022-10-16T09:03:28;100893.53;;;11.23;100.00
59650;BME280;46162;57.568;25.814;2022-10-16T09:06:10;100887.94;;;11.24;100.00
59650;BME280;46162;57.568;25.814;2022-10-16T09:08:50;100884.94;;;11.27;100.00
59650;BME280;46162;57.568;25.814;2022-10-16T09:11:29;100880.22;;;11.29;100.00
59650;BME280;46162;57.568;25.814;2022-10-16T09:14:07;100881.78;;;11.32;100.00
59650;BME280;46162;57.568;25.814;2022-10-16T09:16:43;100882.63;;;11.32;100.00
59650;BME280;46162;57.568;25.814;2022-10-16T09:19:19;100881.63;;;11.33;100.00
59650;BME280;46162;57.568;25.814;2022-10-16T09:21:50;100879.66;;;11.35;100.00
59650;BME280;46162;57.568;25.814;2022-10-16T09:24:20;100885.06;;;11.35;100.00
59650;BME280;46162;57.568;25.814;2022-10-16T09:26:55;100883.19;;;11.36;100.00
59650;BME280;46162;57.568;25.814;2022-10-16T09:29:23;100884.16;;;11.35;100.00
59650;BME280;46162;57.568;25.814;2022-10-16T09:31:53;100882.88;;;11.39;100.00
59650;BME280;46162;57.568;25.814;2022-10-16T09:34:29;100874.63;;;11.40;100.00
59650;BME280;46162;57.568;25.814;2022-10-16T09:37:04;100875.00;;;11.46;100.00
59650;BME280;46162;57.568;25.814;2022-10-16T09:39:44;100875.53;;;11.49;100.00
59650;BME280;46162;57.568;25.814;2022-10-16T09:42:15;100867.44;;;11.49;100.00
59650;BME280;46162;57.568;25.814;2022-10-16T09:44:48;100865.56;;;11.50;100.00
59650;BME280;46162;57.568;25.814;2022-10-16T09:47:19;100867.28;;;11.51;100.00
59650;BME280;46162;57.568;25.814;2022-10-16T09:49:53;100871.41;;;11.55;100.00
59650;BME280;46162;57.568;25.814;2022-10-16T09:52:24;100869.53;;;11.55;100.00
59650;BME280;46162;57.568;25.814;2022-10-16T09:54:54;100874.25;;;11.53;100.00
59650;BME280;46162;57.568;25.814;2022-10-16T09:57:24;100874.09;;;11.55;100.00
59650;BME280;46162;57.568;25.814;2022-10-16T09:59:55;100865.69;;;11.58;100.00
59650;BME280;46162;57.568;25.814;2022-10-16T10:02:29;100877.19;;;11.60;100.00
59650;BME280;46162;57.568;25.814;2022-10-16T10:04:59;100878.34;;;11.57;100.00
59650;BME280;46162;57.568;25.814;2022-10-16T10:07:31;100883.91;;;11.56;100.00
59650;BME280;46162;57.568;25.814;2022-10-16T10:10:04;100889.44;;;11.54;100.00
59650;BME280;46162;57.568;25.814;2022-10-16T10:12:33;100875.78;;;11.56;100.00
59650;BME280;46162;57.568;25.814;2022-10-16T10:15:06;100879.66;;;11.53;100.00
59650;BME280;46162;57.568;25.814;2022-10-16T10:17:45;100882.03;;;11.56;100.00
59650;BME280;46162;57.568;25.814;2022-10-16T10:20:22;100879.50;;;11.55;100.00
59650;BME280;46162;57.568;25.814;2022-10-16T10:22:54;100886.59;;;11.56;100.00
59650;BME280;46162;57.568;25.814;2022-10-16T10:25:34;100878.03;;;11.60;100.00
59650;BME280;46162;57.568;25.814;2022-10-16T10:28:28;100881.28;;;11.64;100.00
59650;BME280;46162;57.568;25.814;2022-10-16T10:31:06;100880.13;;;11.67;100.00
59650;BME280;46162;57.568;25.814;2022-10-16T10:33:43;100874.41;;;11.70;100.00
59650;BME280;46162;57.568;25.814;2022-10-16T10:36:24;100877.97;;;11.70;100.00
59650;BME280;46162;57.568;25.814;2022-10-16T10:38:57;100878.88;;;11.79;100.00
59650;BME280;46162;57.568;25.814;2022-10-16T10:44:29;100871.56;;;12.07;100.00
59650;BME280;46162;57.568;25.814;2022-10-16T10:47:10;100869.84;;;12.06;100.00
59650;BME280;46162;57.568;25.814;2022-10-16T10:49:53;100871.56;;;12.07;100.00
59650;BME280;46162;57.568;25.814;2022-10-16T10:52:36;100867.13;;;12.06;100.00
59650;BME280;46162;57.568;25.814;2022-10-16T10:55:19;100868.47;;;12.02;100.00
59650;BME280;46162;57.568;25.814;2022-10-16T10:58:04;100862.38;;;12.00;100.00
59650;BME280;46162;57.568;25.814;2022-10-16T11:00:46;100866.56;;;11.94;100.00
59650;BME280;46162;57.568;25.814;2022-10-16T11:03:38;100876.88;;;11.99;100.00
59650;BME280;46162;57.568;25.814;2022-10-16T11:06:16;100863.16;;;11.92;100.00
59650;BME280;46162;57.568;25.814;2022-10-16T11:08:55;100858.97;;;11.98;100.00
59650;BME280;46162;57.568;25.814;2022-10-16T11:11:32;100849.31;;;11.95;100.00
59650;BME280;46162;57.568;25.814;2022-10-16T11:14:05;100850.53;;;12.01;100.00
59650;BME280;46162;57.568;25.814;2022-10-16T11:16:38;100850.06;;;12.05;100.00
59650;BME280;46162;57.568;25.814;2022-10-16T11:19:12;100848.94;;;12.16;100.00
59650;BME280;46162;57.568;25.814;2022-10-16T11:21:46;100852.63;;;12.07;100.00
59650;BME280;46162;57.568;25.814;2022-10-16T11:24:22;100854.44;;;12.07;100.00
59650;BME280;46162;57.568;25.814;2022-10-16T11:26:54;100851.38;;;12.01;100.00
59650;BME280;46162;57.568;25.814;2022-10-16T11:29:26;100857.78;;;12.00;100.00
59650;BME280;46162;57.568;25.814;2022-10-16T11:32:01;100855.56;;;11.96;100.00
59650;BME280;46162;57.568;25.814;2022-10-16T11:34:37;100853.88;;;11.95;100.00
59650;BME280;46162;57.568;25.814;2022-10-16T11:37:12;100857.03;;;11.90;100.00
59650;BME280;46162;57.568;25.814;2022-10-16T11:39:43;100862.00;;;11.95;100.00
59650;BME280;46162;57.568;25.814;2022-10-16T11:42:18;100856.25;;;11.98;100.00
59650;BME280;46162;57.568;25.814;2022-10-16T11:44:54;100857.09;;;11.98;100.00
59650;BME280;46162;57.568;25.814;2022-10-16T11:47:33;100854.72;;;11.95;100.00
59650;BME280;46162;57.568;25.814;2022-10-16T11:50:25;100855.19;;;11.91;100.00
59650;BME280;46162;57.568;25.814;2022-10-16T11:53:00;100859.19;;;11.87;100.00
59650;BME280;46162;57.568;25.814;2022-10-16T11:55:34;100864.19;;;11.81;100.00
59650;BME280;46162;57.568;25.814;2022-10-16T11:58:23;100867.06;;;11.80;100.00
59650;BME280;46162;57.568;25.814;2022-10-16T12:00:59;100857.09;;;11.80;100.00
59650;BME280;46162;57.568;25.814;2022-10-16T12:03:33;100852.78;;;11.88;100.00
59650;BME280;46162;57.568;25.814;2022-10-16T12:06:13;100850.09;;;11.88;100.00
59650;BME280;46162;57.568;25.814;2022-10-16T12:08:45;100853.09;;;11.84;100.00
59650;BME280;46162;57.568;25.814;2022-10-16T12:11:30;100858.25;;;11.96;100.00
59650;BME280;46162;57.568;25.814;2022-10-16T12:14:20;100845.66;;;11.87;100.00
59650;BME280;46162;57.568;25.814;2022-10-16T12:16:53;100850.09;;;11.88;100.00
59650;BME280;46162;57.568;25.814;2022-10-16T12:19:23;100858.50;;;11.84;100.00
59650;BME280;46162;57.568;25.814;2022-10-16T12:21:55;100849.25;;;11.87;100.00
59650;BME280;46162;57.568;25.814;2022-10-16T12:24:35;100849.69;;;11.82;100.00
59650;BME280;46162;57.568;25.814;2022-10-16T12:27:06;100843.09;;;11.85;100.00
59650;BME280;46162;57.568;25.814;2022-10-16T12:29:54;100842.19;;;11.94;100.00
59650;BME280;46162;57.568;25.814;2022-10-16T12:32:29;100841.97;;;11.88;100.00
59650;BME280;46162;57.568;25.814;2022-10-16T12:35:19;100841.66;;;11.91;100.00
59650;BME280;46162;57.568;25.814;2022-10-16T12:37:49;100832.50;;;11.92;100.00
59650;BME280;46162;57.568;25.814;2022-10-16T12:40:26;100836.66;;;11.86;100.00
59650;BME280;46162;57.568;25.814;2022-10-16T12:42:56;100841.66;;;11.91;100.00
59650;BME280;46162;57.568;25.814;2022-10-16T12:45:31;100842.66;;;11.90;100.00
59650;BME280;46162;57.568;25.814;2022-10-16T12:48:02;100850.53;;;11.83;100.00
59650;BME280;46162;57.568;25.814;2022-10-16T12:50:33;100851.69;;;11.80;100.00
59650;BME280;46162;57.568;25.814;2022-10-16T12:53:15;100853.00;;;11.76;100.00
59650;BME280;46162;57.568;25.814;2022-10-16T12:56:00;100846.50;;;11.69;100.00
59650;BME280;46162;57.568;25.814;2022-10-16T12:58:50;100844.94;;;11.67;100.00
59650;BME280;46162;57.568;25.814;2022-10-16T13:01:31;100844.66;;;11.70;100.00
59650;BME280;46162;57.568;25.814;2022-10-16T13:04:13;100847.75;;;11.75;100.00
59650;BME280;46162;57.568;25.814;2022-10-16T13:06:51;100864.06;;;11.65;100.00